createdAt,value
2019-05-05T00:00:35.257Z,4.96
2019-05-05T00:03:21.781Z,4.95
2019-05-05T00:05:52.166Z,4.90
2019-05-05T00:08:21.592Z,4.95
2019-05-05T00:11:05.137Z,5.05
2019-05-05T00:13:45.164Z,5.13
2019-05-05T00:16:31.694Z,5.22
2019-05-05T00:19:00.964Z,5.28
2019-05-05T00:21:30.193Z,5.34
2019-05-05T00:23:59.405Z,5.38
2019-05-05T00:26:28.536Z,5.41
2019-05-05T00:28:57.726Z,5.44
2019-05-05T00:31:26.907Z,5.46
2019-05-05T00:33:56.142Z,5.51
2019-05-05T00:36:25.392Z,5.56
2019-05-05T00:38:55.903Z,5.57
2019-05-05T00:41:25.497Z,5.59
2019-05-05T00:43:55.393Z,5.65
2019-05-05T00:46:26.552Z,5.70
2019-05-05T00:48:55.962Z,5.75
2019-05-05T00:51:25.118Z,5.76
2019-05-05T00:53:55.455Z,5.80
2019-05-05T00:56:25.452Z,5.81
2019-05-05T00:58:56.273Z,5.85
2019-05-05T01:01:34.586Z,5.87
2019-05-05T01:04:05.247Z,5.89
2019-05-05T01:06:36.115Z,5.88
2019-05-05T01:09:08.098Z,5.88
2019-05-05T01:11:37.285Z,5.90
2019-05-05T01:14:06.557Z,5.92
2019-05-05T01:16:35.781Z,5.91
2019-05-05T01:19:05.344Z,5.90
2019-05-05T01:21:34.964Z,5.89
2019-05-05T01:24:05.155Z,5.86
2019-05-05T01:26:35.344Z,5.85
2019-05-05T01:29:06.476Z,5.82
2019-05-05T01:31:35.876Z,5.79
2019-05-05T01:34:09.664Z,5.78
2019-05-05T01:36:38.885Z,5.77
2019-05-05T01:39:28.928Z,5.73
2019-05-05T01:42:05.970Z,5.71
2019-05-05T01:44:35.325Z,5.68
2019-05-05T01:47:05.428Z,5.64
2019-05-05T01:49:34.616Z,5.63
2019-05-05T01:52:04.438Z,5.60
2019-05-05T01:54:35.142Z,5.58
2019-05-05T01:57:05.461Z,5.57
2019-05-05T01:59:35.351Z,5.52
2019-05-05T02:02:04.412Z,5.48
2019-05-05T02:04:34.403Z,5.48
2019-05-05T02:07:05.414Z,5.50
2019-05-05T02:09:35.710Z,5.53
2019-05-05T02:12:05.278Z,5.56
2019-05-05T02:14:35.327Z,5.59
2019-05-05T02:17:05.073Z,5.61
2019-05-05T02:19:35.002Z,5.57
2019-05-05T02:22:05.312Z,5.49
2019-05-05T02:24:35.336Z,5.46
2019-05-05T02:27:05.284Z,5.46
2019-05-05T02:29:47.596Z,5.48
2019-05-05T02:32:36.110Z,5.44
2019-05-05T02:35:08.967Z,5.42
2019-05-05T02:37:38.103Z,5.39
2019-05-05T02:40:09.271Z,5.42
2019-05-05T02:42:38.737Z,5.44
2019-05-05T02:45:11.217Z,5.46
2019-05-05T02:48:01.607Z,5.45
2019-05-05T02:50:50.973Z,5.46
2019-05-05T02:53:04.941Z,5.50
2019-05-05T02:55:34.798Z,5.53
2019-05-05T02:58:04.060Z,5.55
2019-05-05T03:00:35.629Z,5.57
2019-05-05T03:03:13.498Z,5.59
2019-05-05T03:05:47.463Z,5.62
2019-05-05T03:08:16.942Z,5.60
2019-05-05T03:10:46.227Z,5.57
2019-05-05T03:13:15.793Z,5.57
2019-05-05T03:15:48.223Z,5.59
2019-05-05T03:18:17.567Z,5.58
2019-05-05T03:20:46.844Z,5.53
2019-05-05T03:23:16.069Z,5.48
2019-05-05T03:25:45.758Z,5.39
2019-05-05T03:28:14.956Z,5.36
2019-05-05T03:30:45.688Z,5.37
2019-05-05T03:33:16.361Z,5.35
2019-05-05T03:35:45.996Z,5.33
2019-05-05T03:38:16.638Z,5.30
2019-05-05T03:40:47.884Z,5.29
2019-05-05T03:43:18.697Z,5.30
2019-05-05T03:45:53.841Z,5.30
2019-05-05T03:48:24.074Z,5.28
2019-05-05T03:51:00.565Z,5.25
2019-05-05T03:53:33.797Z,5.22
2019-05-05T03:56:09.306Z,5.18
2019-05-05T03:58:44.327Z,5.14
2019-05-05T04:01:57.209Z,5.11
2019-05-05T04:04:40.139Z,5.05
2019-05-05T04:07:13.985Z,4.97
2019-05-05T04:09:49.722Z,4.95
2019-05-05T04:12:24.198Z,4.89
2019-05-05T04:14:54.972Z,4.87
2019-05-05T04:17:44.150Z,4.87
2019-05-05T04:20:25.258Z,4.85
2019-05-05T04:22:58.240Z,4.82
2019-05-05T04:28:24.018Z,4.82
2019-05-05T04:30:57.406Z,4.83
2019-05-05T04:33:31.181Z,4.82
2019-05-05T04:36:05.293Z,4.80
2019-05-05T04:38:38.583Z,4.79
2019-05-05T04:41:13.875Z,4.80
2019-05-05T04:43:45.585Z,4.86
2019-05-05T04:46:19.255Z,4.85
2019-05-05T04:49:03.433Z,4.86
2019-05-05T04:51:47.003Z,4.89
2019-05-05T04:54:19.726Z,4.90
2019-05-05T04:56:53.857Z,4.92
2019-05-05T04:59:25.682Z,4.93
2019-05-05T05:02:00.905Z,4.99
2019-05-05T05:04:38.193Z,5.02
2019-05-05T05:07:13.584Z,5.11
2019-05-05T05:09:47.625Z,5.21
2019-05-05T05:12:23.574Z,5.32
2019-05-05T05:14:57.543Z,5.47
2019-05-05T05:17:33.813Z,5.59
2019-05-05T05:20:10.680Z,5.71
2019-05-05T05:22:45.247Z,5.82
2019-05-05T05:25:20.649Z,5.90
2019-05-05T05:27:53.698Z,5.96
2019-05-05T05:30:26.089Z,6.03
2019-05-05T05:32:57.120Z,6.09
2019-05-05T05:35:30.101Z,6.15
2019-05-05T05:38:04.833Z,6.19
2019-05-05T05:40:41.585Z,6.24
2019-05-05T05:43:14.965Z,6.29
2019-05-05T05:45:58.989Z,6.35
2019-05-05T05:48:47.170Z,6.41
2019-05-05T05:51:23.671Z,6.49
2019-05-05T05:54:03.650Z,6.59
2019-05-05T05:56:34.438Z,6.69
2019-05-05T05:59:09.416Z,6.77
2019-05-05T06:01:43.620Z,6.81
2019-05-05T06:04:17.178Z,6.80
2019-05-05T06:06:49.258Z,6.79
2019-05-05T06:09:24.481Z,6.79
2019-05-05T06:11:54.226Z,6.77
2019-05-05T06:14:24.659Z,6.77
2019-05-05T06:16:54.114Z,6.79
2019-05-05T06:19:24.620Z,6.79
2019-05-05T06:21:54.374Z,6.79
2019-05-05T06:24:24.095Z,6.80
2019-05-05T06:26:54.758Z,6.84
2019-05-05T06:29:24.066Z,6.91
2019-05-05T06:31:55.763Z,7.03
2019-05-05T06:34:34.464Z,7.12
2019-05-05T06:37:05.271Z,7.19
2019-05-05T06:39:34.449Z,7.26
2019-05-05T06:42:17.361Z,7.38
2019-05-05T06:44:56.974Z,7.48
2019-05-05T06:47:30.207Z,7.55
2019-05-05T06:50:06.541Z,7.62
2019-05-05T06:52:44.113Z,7.65
2019-05-05T06:55:14.195Z,7.72
2019-05-05T06:57:49.006Z,7.75
2019-05-05T07:00:24.178Z,7.83
2019-05-05T07:02:54.101Z,7.91
2019-05-05T07:05:34.114Z,8.00
2019-05-05T07:08:04.472Z,8.07
2019-05-05T07:10:34.009Z,8.15
2019-05-05T07:13:04.956Z,8.21
2019-05-05T07:15:34.438Z,8.33
2019-05-05T07:18:03.822Z,8.43
2019-05-05T07:20:34.655Z,8.57
2019-05-05T07:23:05.477Z,8.64
2019-05-05T07:25:42.763Z,8.71
2019-05-05T07:28:05.613Z,8.81
2019-05-05T07:30:34.838Z,8.94
2019-05-05T07:33:04.565Z,9.10
2019-05-05T07:35:56.723Z,9.34
2019-05-05T07:38:20.740Z,9.51
2019-05-05T07:40:49.972Z,9.85
2019-05-05T07:43:19.160Z,9.87
2019-05-05T07:45:48.391Z,10.03
2019-05-05T07:48:17.590Z,10.24
2019-05-05T07:50:58.161Z,10.36
2019-05-05T07:53:18.138Z,10.26
2019-05-05T07:55:47.660Z,10.12
2019-05-05T07:58:16.916Z,9.93
2019-05-05T08:00:46.067Z,9.83
2019-05-05T08:03:15.272Z,9.80
2019-05-05T08:05:44.568Z,9.84
2019-05-05T08:08:14.074Z,10.11
2019-05-05T08:10:43.852Z,10.40
2019-05-05T08:13:14.184Z,10.90
2019-05-05T08:15:56.891Z,11.39
2019-05-05T08:18:34.560Z,11.71
2019-05-05T08:21:08.037Z,11.66
2019-05-05T08:23:41.397Z,11.54
2019-05-05T08:26:24.457Z,11.96
2019-05-05T08:29:14.822Z,12.36
2019-05-05T08:31:48.036Z,12.29
2019-05-05T08:34:17.205Z,11.90
2019-05-05T08:36:46.485Z,11.55
2019-05-05T08:39:15.666Z,11.26
2019-05-05T08:41:47.297Z,10.98
2019-05-05T08:44:18.153Z,10.78
2019-05-05T08:46:47.379Z,10.70
2019-05-05T08:49:16.592Z,11.28
2019-05-05T08:51:45.800Z,11.07
2019-05-05T08:54:14.951Z,10.88
2019-05-05T08:56:48.450Z,10.75
2019-05-05T08:59:25.197Z,10.76
2019-05-05T09:01:57.883Z,11.04
2019-05-05T09:04:39.933Z,11.22
2019-05-05T09:07:09.141Z,11.96
2019-05-05T09:09:38.427Z,12.41
2019-05-05T09:12:10.846Z,12.66
2019-05-05T09:14:44.905Z,13.16
2019-05-05T09:17:17.204Z,13.57
2019-05-05T09:19:46.434Z,13.57
2019-05-05T09:22:15.615Z,13.06
2019-05-05T09:25:06.469Z,13.42
2019-05-05T09:27:38.038Z,13.77
2019-05-05T09:30:09.252Z,13.57
2019-05-05T09:32:38.566Z,13.35
2019-05-05T09:35:08.632Z,13.29
2019-05-05T09:37:39.071Z,13.26
2019-05-05T09:40:10.436Z,13.65
2019-05-05T09:42:44.180Z,14.13
2019-05-05T09:45:16.239Z,14.53
2019-05-05T09:47:45.448Z,14.56
2019-05-05T09:50:14.620Z,14.90
2019-05-05T09:52:44.416Z,14.91
2019-05-05T09:55:14.011Z,14.67
2019-05-05T09:57:47.832Z,14.43
2019-05-05T10:00:17.229Z,14.22
2019-05-05T10:02:55.079Z,14.54
2019-05-05T10:05:26.373Z,14.57
2019-05-05T10:07:55.544Z,14.69
2019-05-05T10:10:26.207Z,14.79
2019-05-05T10:12:55.507Z,15.07
2019-05-05T10:15:24.693Z,14.85
2019-05-05T10:17:55.812Z,14.38
2019-05-05T10:20:29.148Z,13.81
2019-05-05T10:23:04.634Z,13.29
2019-05-05T10:25:50.052Z,12.85
2019-05-05T10:28:25.082Z,12.41
2019-05-05T10:30:59.452Z,12.18
2019-05-05T10:33:32.195Z,12.04
2019-05-05T10:36:09.176Z,11.99
2019-05-05T10:39:06.692Z,12.00
2019-05-05T10:41:39.303Z,12.07
2019-05-05T10:44:08.515Z,12.24
2019-05-05T10:46:37.927Z,12.41
2019-05-05T10:49:07.168Z,12.55
2019-05-05T10:51:36.323Z,12.74
2019-05-05T10:54:05.509Z,12.76
2019-05-05T10:56:34.768Z,12.72
2019-05-05T10:59:09.466Z,12.65
2019-05-05T11:01:38.955Z,12.65
2019-05-05T11:04:08.266Z,12.61
2019-05-05T11:06:37.505Z,12.54
2019-05-05T11:09:08.059Z,12.45
2019-05-05T11:11:37.265Z,12.41
2019-05-05T11:14:06.458Z,12.38
2019-05-05T11:16:36.772Z,12.40
2019-05-05T11:19:06.269Z,12.49
2019-05-05T11:21:35.604Z,12.57
2019-05-05T11:24:05.164Z,12.70
2019-05-05T11:26:34.314Z,12.89
2019-05-05T11:29:04.736Z,13.06
2019-05-05T11:31:34.423Z,13.24
2019-05-05T11:34:05.290Z,13.34
2019-05-05T11:36:47.784Z,13.43
2019-05-05T11:39:23.435Z,13.38
2019-05-05T11:41:54.620Z,13.26
2019-05-05T11:44:24.335Z,13.08
2019-05-05T11:46:55.304Z,12.90
2019-05-05T11:49:24.694Z,12.66
2019-05-05T11:51:57.657Z,12.51
2019-05-05T11:54:27.040Z,12.48
2019-05-05T11:57:00.126Z,12.55
2019-05-05T11:59:29.427Z,12.64
2019-05-05T12:01:58.756Z,12.77
2019-05-05T12:04:28.035Z,12.95
2019-05-05T12:06:57.404Z,13.03
2019-05-05T12:09:28.193Z,13.20
2019-05-05T12:11:57.554Z,13.35
2019-05-05T12:14:28.502Z,13.64
2019-05-05T12:16:57.672Z,13.86
2019-05-05T12:19:26.851Z,14.01
2019-05-05T12:21:56.252Z,14.21
2019-05-05T12:24:27.108Z,14.38
2019-05-05T12:27:15.885Z,14.32
2019-05-05T12:29:45.955Z,14.35
2019-05-05T12:32:15.437Z,14.70
2019-05-05T12:34:44.709Z,14.92
2019-05-05T12:37:14.321Z,15.13
2019-05-05T12:39:44.242Z,15.06
2019-05-05T12:42:15.147Z,15.18
2019-05-05T12:45:04.645Z,15.50
2019-05-05T12:47:29.707Z,15.46
2019-05-05T12:49:58.957Z,15.05
2019-05-05T12:52:28.114Z,14.72
2019-05-05T12:54:57.307Z,14.40
2019-05-05T12:57:27.453Z,14.11
2019-05-05T12:59:56.616Z,13.80
2019-05-05T13:02:25.883Z,13.60
2019-05-05T13:04:56.310Z,13.46
2019-05-05T13:07:25.492Z,13.32
2019-05-05T13:09:54.827Z,13.22
2019-05-05T13:12:24.128Z,13.11
2019-05-05T13:14:54.438Z,13.08
2019-05-05T13:17:27.390Z,13.20
2019-05-05T13:20:01.844Z,13.49
2019-05-05T13:22:40.168Z,13.73
2019-05-05T13:25:14.309Z,14.11
2019-05-05T13:27:45.391Z,14.10
2019-05-05T13:30:14.692Z,14.09
2019-05-05T13:32:44.148Z,14.00
2019-05-05T13:35:15.189Z,13.86
2019-05-05T13:37:44.668Z,13.70
2019-05-05T13:40:14.905Z,13.57
2019-05-05T13:42:44.609Z,13.50
2019-05-05T13:45:15.748Z,13.41
2019-05-05T13:47:44.926Z,13.36
2019-05-05T13:50:19.320Z,13.38
2019-05-05T13:52:50.036Z,13.46
2019-05-05T13:55:24.109Z,13.94
2019-05-05T13:57:54.821Z,14.41
2019-05-05T14:00:25.634Z,14.24
2019-05-05T14:02:55.155Z,14.11
2019-05-05T14:05:24.330Z,13.93
2019-05-05T14:07:53.745Z,13.76
2019-05-05T14:10:23.689Z,13.59
2019-05-05T14:12:56.956Z,13.40
2019-05-05T14:15:28.582Z,13.29
2019-05-05T14:17:57.795Z,13.49
2019-05-05T14:20:26.991Z,13.90
2019-05-05T14:22:56.698Z,14.02
2019-05-05T14:25:31.613Z,13.90
2019-05-05T14:28:03.520Z,13.82
2019-05-05T14:30:54.175Z,13.76
2019-05-05T14:33:25.362Z,13.94
2019-05-05T14:35:56.305Z,13.74
2019-05-05T14:38:27.369Z,13.55
2019-05-05T14:40:57.528Z,13.19
2019-05-05T14:43:26.769Z,12.94
2019-05-05T14:45:56.011Z,12.74
2019-05-05T14:48:25.247Z,12.57
2019-05-05T14:50:54.585Z,12.40
2019-05-05T14:53:24.184Z,12.33
2019-05-05T14:55:54.572Z,12.27
2019-05-05T14:58:25.088Z,12.17
2019-05-05T15:00:54.458Z,12.20
2019-05-05T15:03:24.294Z,12.21
2019-05-05T15:06:06.655Z,12.18
2019-05-05T15:08:40.087Z,12.15
2019-05-05T15:11:11.060Z,12.07
2019-05-05T15:13:44.761Z,11.97
2019-05-05T15:16:15.218Z,11.81
2019-05-05T15:18:45.399Z,11.64
2019-05-05T15:21:14.590Z,11.49
2019-05-05T15:23:43.766Z,11.35
2019-05-05T15:26:12.972Z,11.28
2019-05-05T15:31:19.386Z,11.19
2019-05-05T15:33:48.563Z,11.11
2019-05-05T15:36:18.694Z,11.04
2019-05-05T15:38:47.876Z,10.96
2019-05-05T15:41:17.073Z,11.09
2019-05-05T15:43:46.224Z,11.27
2019-05-05T15:46:15.462Z,11.43
2019-05-05T15:48:44.650Z,11.52
2019-05-05T15:51:14.490Z,11.48
2019-05-05T15:53:46.018Z,11.44
2019-05-05T15:56:15.251Z,11.37
2019-05-05T15:58:46.592Z,11.32
2019-05-05T16:01:15.760Z,11.22
2019-05-05T16:03:45.125Z,11.08
2019-05-05T16:06:14.389Z,10.92
2019-05-05T16:08:44.493Z,10.84
2019-05-05T16:11:14.283Z,11.04
2019-05-05T16:13:44.002Z,11.04
2019-05-05T16:16:20.107Z,11.13
2019-05-05T16:19:04.927Z,11.10
2019-05-05T16:21:36.183Z,11.04
2019-05-05T16:27:21.218Z,10.91
2019-05-05T16:29:41.313Z,10.83
2019-05-05T16:32:21.073Z,10.82
2019-05-05T16:34:41.473Z,10.79
2019-05-05T16:37:10.932Z,10.79
2019-05-05T16:39:40.127Z,10.78
2019-05-05T16:42:09.369Z,10.79
2019-05-05T16:44:38.986Z,10.82
2019-05-05T16:47:10.879Z,10.85
2019-05-05T16:49:40.122Z,10.86
2019-05-05T16:52:11.228Z,10.85
2019-05-05T16:54:42.034Z,10.82
2019-05-05T16:57:11.637Z,10.76
2019-05-05T16:59:40.915Z,10.67
2019-05-05T17:02:11.159Z,10.56
2019-05-05T17:04:40.361Z,10.33
2019-05-05T17:07:15.719Z,10.03
2019-05-05T17:09:45.416Z,9.75
2019-05-05T17:12:18.178Z,9.55
2019-05-05T17:14:49.004Z,9.33
2019-05-05T17:17:20.950Z,9.24
2019-05-05T17:19:53.833Z,9.18
2019-05-05T17:22:24.337Z,9.13
2019-05-05T17:24:53.721Z,9.12
2019-05-05T17:27:23.677Z,9.20
2019-05-05T17:29:53.644Z,9.23
2019-05-05T17:32:24.878Z,9.28
2019-05-05T17:34:54.297Z,9.28
2019-05-05T17:37:24.032Z,9.42
2019-05-05T17:39:55.841Z,9.45
2019-05-05T17:42:44.041Z,9.48
2019-05-05T17:45:17.794Z,9.51
2019-05-05T17:48:00.610Z,9.48
2019-05-05T17:50:48.167Z,9.46
2019-05-05T17:53:25.019Z,9.46
2019-05-05T17:55:57.670Z,9.45
2019-05-05T17:58:27.726Z,9.43
2019-05-05T18:00:58.612Z,9.35
2019-05-05T18:03:28.417Z,9.33
2019-05-05T18:06:03.850Z,9.32
2019-05-05T18:08:44.558Z,9.30
2019-05-05T18:11:31.566Z,9.26
2019-05-05T18:14:04.246Z,9.26
2019-05-05T18:16:34.171Z,9.25
2019-05-05T18:19:05.392Z,9.27
2019-05-05T18:21:34.974Z,9.29
2019-05-05T18:24:06.781Z,9.30
2019-05-05T18:26:36.565Z,9.30
2019-05-05T18:29:05.045Z,9.28
2019-05-05T18:31:34.227Z,9.25
2019-05-05T18:34:03.991Z,9.21
2019-05-05T18:36:33.397Z,9.14
2019-05-05T18:39:04.452Z,9.07
2019-05-05T18:41:46.996Z,8.98
2019-05-05T18:44:17.834Z,8.85
2019-05-05T18:46:48.701Z,8.70
2019-05-05T18:49:18.821Z,8.57
2019-05-05T18:51:48.118Z,8.47
2019-05-05T18:54:17.275Z,8.39
2019-05-05T18:56:46.954Z,8.32
2019-05-05T18:59:16.121Z,8.28
2019-05-05T19:01:49.987Z,8.24
2019-05-05T19:04:23.538Z,8.23
2019-05-05T19:06:54.909Z,8.22
2019-05-05T19:09:24.928Z,8.19
2019-05-05T19:11:57.668Z,8.19
2019-05-05T19:14:30.223Z,8.21
2019-05-05T19:17:04.553Z,8.21
2019-05-05T19:19:34.868Z,8.21
2019-05-05T19:22:07.815Z,8.19
2019-05-05T19:24:36.985Z,8.19
2019-05-05T19:27:07.793Z,8.16
2019-05-05T19:29:37.279Z,8.13
2019-05-05T19:32:06.566Z,8.10
2019-05-05T19:34:35.748Z,8.07
2019-05-05T19:37:04.944Z,8.05
2019-05-05T19:39:34.509Z,8.03
2019-05-05T19:42:04.807Z,8.00
2019-05-05T19:44:34.198Z,8.01
2019-05-05T19:47:07.820Z,7.97
2019-05-05T19:49:39.153Z,7.91
2019-05-05T19:52:08.070Z,7.87
2019-05-05T19:54:38.041Z,7.86
2019-05-05T19:57:07.164Z,7.84
2019-05-05T19:59:37.349Z,7.84
2019-05-05T20:02:07.578Z,7.85
2019-05-05T20:04:37.700Z,7.86
2019-05-05T20:07:06.887Z,7.87
2019-05-05T20:09:36.057Z,7.89
2019-05-05T20:12:06.192Z,7.88
2019-05-05T20:14:35.395Z,7.87
2019-05-05T20:17:09.477Z,7.81
2019-05-05T20:19:40.334Z,7.70
2019-05-05T20:22:10.659Z,7.64
2019-05-05T20:24:39.855Z,7.59
2019-05-05T20:27:09.073Z,7.58
2019-05-05T20:29:38.255Z,7.58
2019-05-05T20:32:07.549Z,7.57
2019-05-05T20:34:40.639Z,7.51
2019-05-05T20:37:25.919Z,7.41
2019-05-05T20:39:56.322Z,7.36
2019-05-05T20:42:25.482Z,7.33
2019-05-05T20:44:54.641Z,7.30
2019-05-05T20:47:23.847Z,7.30
2019-05-05T20:49:53.892Z,7.28
2019-05-05T20:52:23.730Z,7.30
2019-05-05T20:54:53.766Z,7.29
2019-05-05T20:57:23.126Z,7.26
2019-05-05T20:59:52.288Z,7.24
2019-05-05T21:02:21.488Z,7.20
2019-05-05T21:04:50.937Z,7.18
2019-05-05T21:07:23.233Z,7.17
2019-05-05T21:09:51.015Z,7.17
2019-05-05T21:12:20.165Z,7.17
2019-05-05T21:14:49.794Z,7.18
2019-05-05T21:17:19.032Z,7.18
2019-05-05T21:19:48.264Z,7.21
2019-05-05T21:22:35.688Z,7.23
2019-05-05T21:25:08.842Z,7.21
2019-05-05T21:27:38.018Z,7.18
2019-05-05T21:30:07.232Z,7.19
2019-05-05T21:32:43.545Z,7.22
2019-05-05T21:35:15.622Z,7.24
2019-05-05T21:37:50.541Z,7.24
2019-05-05T21:40:27.624Z,7.23
2019-05-05T21:42:56.833Z,7.23
2019-05-05T21:45:26.056Z,7.24
2019-05-05T21:47:55.223Z,7.24
2019-05-05T21:50:33.838Z,7.22
2019-05-05T21:53:16.904Z,7.20
2019-05-05T21:55:47.690Z,7.17
2019-05-05T21:58:18.486Z,7.16
2019-05-05T22:00:49.572Z,7.13
2019-05-05T22:03:35.531Z,7.09
2019-05-05T22:06:05.163Z,7.06
2019-05-05T22:08:35.142Z,7.02
2019-05-05T22:11:04.778Z,7.00
2019-05-05T22:13:36.334Z,6.98
2019-05-05T22:16:05.274Z,6.95
2019-05-05T22:18:34.415Z,6.89
2019-05-05T22:21:21.286Z,6.83
2019-05-05T22:24:08.322Z,6.82
2019-05-05T22:26:37.478Z,6.81
2019-05-05T22:29:06.638Z,6.79
2019-05-05T22:31:35.787Z,6.76
2019-05-05T22:34:05.342Z,6.72
2019-05-05T22:36:35.210Z,6.68
2019-05-05T22:39:06.929Z,6.62
2019-05-05T22:41:36.688Z,6.56
2019-05-05T22:44:05.909Z,6.53
2019-05-05T22:46:35.053Z,6.47
2019-05-05T22:49:04.415Z,6.42
2019-05-05T22:51:33.859Z,6.37
2019-05-05T22:54:03.933Z,6.34
2019-05-05T22:56:33.752Z,6.31
2019-05-05T22:59:04.315Z,6.31
2019-05-05T23:01:33.257Z,6.30
2019-05-05T23:04:20.675Z,6.26
2019-05-05T23:06:54.338Z,6.16
2019-05-05T23:09:23.482Z,6.03
2019-05-05T23:11:54.527Z,5.94
2019-05-05T23:14:29.974Z,5.92
2019-05-05T23:17:08.550Z,5.91
2019-05-05T23:19:44.372Z,5.86
2019-05-05T23:22:15.585Z,5.81
2019-05-05T23:24:54.093Z,5.76
2019-05-05T23:27:41.143Z,5.70
2019-05-05T23:30:10.853Z,5.66
2019-05-05T23:32:40.008Z,5.66
2019-05-05T23:35:09.254Z,5.67
2019-05-05T23:37:38.420Z,5.68
2019-05-05T23:40:07.631Z,5.68
2019-05-05T23:42:36.814Z,5.65
2019-05-05T23:45:06.214Z,5.63
2019-05-05T23:47:35.391Z,5.67
2019-05-05T23:50:05.529Z,5.68
2019-05-05T23:52:35.085Z,5.69
2019-05-05T23:55:06.259Z,5.69
2019-05-05T23:57:35.432Z,5.71
